sensor_id;sensor_type;location;lat;lon;timestamp;temperature;humidity
43995;DHT22;51687;52.160;5.298;2023-07-16T11:05:46;21.30;57.80
43995;DHT22;51687;52.160;5.298;2023-07-16T11:08:25;22.30;55.70
43995;DHT22;51687;52.160;5.298;2023-07-16T11:10:58;22.50;56.20
43995;DHT22;51687;52.160;5.298;2023-07-16T11:13:28;22.60;54.70
43995;DHT22;51687;52.160;5.298;2023-07-16T11:15:57;22.60;52.80
43995;DHT22;51687;52.160;5.298;2023-07-16T11:18:24;22.70;53.40
43995;DHT22;51687;52.160;5.298;2023-07-16T11:20:53;22.70;51.80
43995;DHT22;51687;52.160;5.298;2023-07-16T11:23:20;22.70;51.80
43995;DHT22;51687;52.160;5.298;2023-07-16T11:25:48;22.60;52.20
43995;DHT22;51687;52.160;5.298;2023-07-16T11:28:15;22.60;52.80
43995;DHT22;51687;52.160;5.298;2023-07-16T11:30:42;22.70;53.00
43995;DHT22;51687;52.160;5.298;2023-07-16T11:33:12;22.70;53.00
43995;DHT22;51687;52.160;5.298;2023-07-16T11:35:39;22.70;53.00
43995;DHT22;51687;52.160;5.298;2023-07-16T11:38:07;22.80;52.80
43995;DHT22;51687;52.160;5.298;2023-07-16T11:40:35;22.80;52.20
43995;DHT22;51687;52.160;5.298;2023-07-16T11:43:11;22.90;52.50
43995;DHT22;51687;52.160;5.298;2023-07-16T11:45:38;22.90;51.70
43995;DHT22;51687;52.160;5.298;2023-07-16T11:48:05;22.90;51.50
43995;DHT22;51687;52.160;5.298;2023-07-16T11:50:32;22.90;51.70
43995;DHT22;51687;52.160;5.298;2023-07-16T11:53:00;22.90;51.80
43995;DHT22;51687;52.160;5.298;2023-07-16T11:55:28;22.90;50.90
43995;DHT22;51687;52.160;5.298;2023-07-16T11:57:55;23.00;50.80
43995;DHT22;51687;52.160;5.298;2023-07-16T12:00:26;23.00;50.30
43995;DHT22;51687;52.160;5.298;2023-07-16T12:02:53;23.10;49.30
43995;DHT22;51687;52.160;5.298;2023-07-16T12:05:21;23.10;49.60
43995;DHT22;51687;52.160;5.298;2023-07-16T12:08:10;23.10;48.70
43995;DHT22;51687;52.160;5.298;2023-07-16T12:10:41;23.10;49.20
43995;DHT22;51687;52.160;5.298;2023-07-16T13:12:09;23.20;49.50
43995;DHT22;51687;52.160;5.298;2023-07-16T13:14:35;23.70;48.90
43995;DHT22;51687;52.160;5.298;2023-07-16T13:17:02;23.70;48.40
43995;DHT22;51687;52.160;5.298;2023-07-16T13:19:31;23.70;48.30
43995;DHT22;51687;52.160;5.298;2023-07-16T13:21:58;23.70;47.80
43995;DHT22;51687;52.160;5.298;2023-07-16T13:24:25;23.70;47.80
43995;DHT22;51687;52.160;5.298;2023-07-16T13:26:52;23.70;47.70
43995;DHT22;51687;52.160;5.298;2023-07-16T13:29:19;23.80;47.70
43995;DHT22;51687;52.160;5.298;2023-07-16T13:31:46;23.80;47.40
43995;DHT22;51687;52.160;5.298;2023-07-16T13:34:13;23.80;46.90
43995;DHT22;51687;52.160;5.298;2023-07-16T13:36:39;23.80;47.20
43995;DHT22;51687;52.160;5.298;2023-07-16T21:10:30;23.80;47.80
43995;DHT22;51687;52.160;5.298;2023-07-16T21:12:58;24.00;50.90
43995;DHT22;51687;52.160;5.298;2023-07-16T21:15:26;24.00;50.30
43995;DHT22;51687;52.160;5.298;2023-07-16T21:17:53;24.00;50.60
43995;DHT22;51687;52.160;5.298;2023-07-16T21:20:21;23.90;50.40
43995;DHT22;51687;52.160;5.298;2023-07-16T21:22:49;24.00;50.10
43995;DHT22;51687;52.160;5.298;2023-07-16T21:25:16;24.00;51.10
43995;DHT22;51687;52.160;5.298;2023-07-16T21:27:56;23.90;50.80
43995;DHT22;51687;52.160;5.298;2023-07-16T21:30:23;24.00;51.20
43995;DHT22;51687;52.160;5.298;2023-07-16T21:32:52;23.90;50.70
43995;DHT22;51687;52.160;5.298;2023-07-16T21:35:20;23.90;50.60
43995;DHT22;51687;52.160;5.298;2023-07-16T21:37:47;23.90;51.00
43995;DHT22;51687;52.160;5.298;2023-07-16T22:19:40;23.90;51.00
43995;DHT22;51687;52.160;5.298;2023-07-16T22:22:08;23.70;50.40
43995;DHT22;51687;52.160;5.298;2023-07-16T22:24:35;23.70;50.40
43995;DHT22;51687;52.160;5.298;2023-07-16T22:27:01;23.60;50.70
43995;DHT22;51687;52.160;5.298;2023-07-16T22:29:28;23.60;50.70
43995;DHT22;51687;52.160;5.298;2023-07-16T22:31:56;23.60;50.40
43995;DHT22;51687;52.160;5.298;2023-07-16T22:34:23;23.60;50.30
43995;DHT22;51687;52.160;5.298;2023-07-16T22:36:49;23.60;50.50
43995;DHT22;51687;52.160;5.298;2023-07-16T22:39:16;23.60;50.20
43995;DHT22;51687;52.160;5.298;2023-07-16T22:41:43;23.60;50.20
43995;DHT22;51687;52.160;5.298;2023-07-16T22:44:10;23.60;50.30
43995;DHT22;51687;52.160;5.298;2023-07-16T22:46:36;23.50;50.40
43995;DHT22;51687;52.160;5.298;2023-07-16T22:49:03;23.50;50.60
43995;DHT22;51687;52.160;5.298;2023-07-16T22:51:33;23.50;50.80
43995;DHT22;51687;52.160;5.298;2023-07-16T22:54:00;23.50;51.10
43995;DHT22;51687;52.160;5.298;2023-07-16T22:56:27;23.50;51.40
43995;DHT22;51687;52.160;5.298;2023-07-16T22:58:54;23.50;51.70
43995;DHT22;51687;52.160;5.298;2023-07-16T23:01:21;23.50;52.60
43995;DHT22;51687;52.160;5.298;2023-07-16T23:03:48;23.50;52.30
43995;DHT22;51687;52.160;5.298;2023-07-16T23:06:14;23.50;52.50
43995;DHT22;51687;52.160;5.298;2023-07-16T23:08:41;23.40;52.80
43995;DHT22;51687;52.160;5.298;2023-07-16T23:11:08;23.40;53.10
43995;DHT22;51687;52.160;5.298;2023-07-16T23:13:35;23.40;53.50
43995;DHT22;51687;52.160;5.298;2023-07-16T23:16:02;23.40;53.60
43995;DHT22;51687;52.160;5.298;2023-07-16T23:18:29;23.40;53.80
43995;DHT22;51687;52.160;5.298;2023-07-16T23:20:59;23.40;54.00
43995;DHT22;51687;52.160;5.298;2023-07-16T23:23:26;23.40;54.30
43995;DHT22;51687;52.160;5.298;2023-07-16T23:25:53;23.40;54.20
43995;DHT22;51687;52.160;5.298;2023-07-16T23:28:21;23.40;53.80
43995;DHT22;51687;52.160;5.298;2023-07-16T23:30:48;23.40;53.50
43995;DHT22;51687;52.160;5.298;2023-07-16T23:33:17;23.40;53.20
43995;DHT22;51687;52.160;5.298;2023-07-16T23:35:44;23.40;53.10
43995;DHT22;51687;52.160;5.298;2023-07-16T23:38:11;23.30;53.00
43995;DHT22;51687;52.160;5.298;2023-07-16T23:40:38;23.30;52.80
43995;DHT22;51687;52.160;5.298;2023-07-16T23:43:05;23.30;52.70
43995;DHT22;51687;52.160;5.298;2023-07-16T23:45:34;23.30;52.30
43995;DHT22;51687;52.160;5.298;2023-07-16T23:48:01;23.30;52.10
43995;DHT22;51687;52.160;5.298;2023-07-16T23:50:28;23.30;52.30
43995;DHT22;51687;52.160;5.298;2023-07-16T23:52:55;23.20;52.10
43995;DHT22;51687;52.160;5.298;2023-07-16T23:55:21;23.20;52.20
43995;DHT22;51687;52.160;5.298;2023-07-16T23:57:48;23.20;52.10
